KFHR/FHR METAR and TAF weather

Enter ICAO airport designator
Station Type Date Time Source
KFHR METAR 2022/06/30 12:53 UTC NOAA

KFHR 301253Z AUTO 28003KT 10SM FEW050 10/09 A3017 RMK AO2 SLP215 T01000094 $


Station Type Date Time Source
KFHR Decoded METAR 2022/06/30 12:53 UTC NOAA

FRIDAY HARBOR AIRPORT, WA, United States (KFHR) 48-31N 123-02W 32M
Jun 30, 2022 - 08:53 AM EDT / 2022.06.30 1253 UTC
Wind: from the W (280 degrees) at 3 MPH (3 KT):0
Visibility: 10 mile(s):0
Sky conditions: mostly clear
Temperature: 50.0 F (10.0 C)
Dew Point: 48.9 F (9.4 C)
Relative Humidity: 96%
Pressure (altimeter): 30.17 in. Hg (1021 hPa)
ob: KFHR 301253Z AUTO 28003KT 10SM FEW050 10/09 A3017 RMK AO2 SLP215 T01000094
cycle: 13

Station Type Date Time Source
KFHR TAF UTC NOAA

Error!

Example: see airport list